M I D A S
Marine Information and Data Acquisition System
Tripno 1604 of the Zeeleeuw from 2008-09-10 06:20:15 to 2008-09-10 14:14:11
Back to CruiseResearch ActivitiesStationsMapUnderway DataData graphs

EquipmentUnitsComment
TimeDGPSUTC
LatitudeDGPSDM.mWGS84
LongitudeDGPSDM.mWGS84
TemperatureSBE03/SBE38deg celciusITS90
ConductivitySBE21S/mITS90
SalinitySBE21 Practical Salinity Units
ChlorophylAChelsea fluorimeterg/lCalibrated in Aceton
Missing or incorrect values are displayed as -999
Sea surface data collected by the RV Zeeleeuw from 2008-09-10 06:21:14 to 2008-09-10 12:35:52
Time Latitude Longitude Temperature Conductivity Salinity ChlorophylA
2008-09-10 06:22:20 51°13.624 2°56.047 20.1726 0.067317 0.355478 -1.209513
2008-09-10 06:23:20 51°13.625 2°56.047 20.1767 0.067317 0.355526 -1.209513
2008-09-10 06:24:20 51°13.625 2°56.047 20.1815 0.067317 0.355568 -1.209513
2008-09-10 06:25:20 51°13.625 2°56.047 20.1945 0.067214 0.355056 -1.209513
2008-09-10 06:26:20 51°13.625 2°56.047 20.1993 0.067214 0.355092 -1.209513
2008-09-10 06:27:19 51°13.625 2°56.047 20.2086 0.067214 0.35514 -1.209513
2008-09-10 06:28:20 51°13.624 2°56.047 20.2057 0.067214 0.355176 -1.209513
2008-09-10 06:29:20 51°13.624 2°56.047 20.2168 0.067214 0.355218 -1.209513
2008-09-10 06:30:20 51°13.624 2°56.047 20.2205 0.067214 0.355259 -1.209513
2008-09-10 06:31:20 51°13.624 2°56.047 20.2285 0.067214 0.355301 -1.209513
2008-09-10 06:32:20 51°13.624 2°56.047 20.234 0.067214 0.355343 -1.209513
2008-09-10 06:33:20 51°13.624 2°56.048 20.2419 0.067214 0.355386 -1.209513
2008-09-10 06:34:20 51°13.624 2°56.047 20.2486 0.067214 0.355428 -1.209513
2008-09-10 06:35:20 51°13.624 2°56.047 20.2579 0.067214 0.35547 -1.209513
2008-09-10 06:36:20 51°13.623 2°56.047 20.2647 0.067214 0.355512 -1.209513
2008-09-10 06:37:20 51°13.623 2°56.047 20.2726 0.067214 0.355554 -1.209513
2008-09-10 06:38:20 51°13.623 2°56.047 20.2735 0.067214 0.355602 -1.209513
2008-09-10 06:39:20 51°13.623 2°56.048 20.2809 0.067111 0.355083 -1.209513
2008-09-10 06:40:20 51°13.623 2°56.047 20.2882 0.067111 0.355125 -1.209513
2008-09-10 06:41:20 51°13.623 2°56.048 20.2982 0.067111 0.355167 -1.209513
2008-09-10 06:42:20 51°13.623 2°56.048 20.3023 0.067111 0.355215 -1.244337
2008-09-10 06:43:20 51°13.623 2°56.047 20.302 0.067111 0.355257 -1.209513
2008-09-10 06:44:20 51°13.623 2°56.047 20.3078 0.067111 0.355293 -1.209513
2008-09-10 06:45:20 51°13.623 2°56.047 20.3148 0.067111 0.355335 -1.209513
2008-09-10 06:46:20 51°13.623 2°56.047 20.3356 0.067111 0.355377 -1.209513
2008-09-10 06:47:20 51°13.624 2°56.047 20.3531 0.067111 0.355419 -1.209513
2008-09-10 06:48:20 51°13.624 2°56.047 20.3639 0.067111 0.355467 -1.209513
2008-09-10 06:49:20 51°13.624 2°56.048 20.3684 0.067111 0.35551 -1.209513
2008-09-10 06:50:20 51°13.624 2°56.048 20.3805 0.067111 0.355552 -1.209513
2008-09-10 06:51:20 51°13.624 2°56.048 20.3859 0.067111 0.355594 -1.209513
2008-09-10 06:52:20 51°13.624 2°56.048 20.3912 0.067111 0.355642 -1.209513
2008-09-10 06:53:20 51°13.625 2°56.048 20.3884 0.067009 0.355122 -1.209513
2008-09-10 06:54:20 51°13.624 2°56.048 20.3983 0.067009 0.355158 -1.209513
2008-09-10 06:55:20 51°13.623 2°56.047 20.4052 0.067009 0.355206 -1.209513
2008-09-10 06:56:20 51°13.623 2°56.047 20.4132 0.067009 0.355255 -1.209513
2008-09-10 06:57:20 51°13.623 2°56.047 20.4214 0.067009 0.355297 -1.209513
2008-09-10 06:58:20 51°13.622 2°56.047 20.4309 0.067009 0.355339 -1.209513
2008-09-10 06:59:20 51°13.623 2°56.048 20.4412 0.067009 0.355387 -1.209513
2008-09-10 07:00:20 51°13.623 2°56.048 20.4428 0.067009 0.355429 -1.209513
2008-09-10 07:01:20 51°13.623 2°56.048 20.452 0.067009 0.355472 -1.209513
2008-09-10 07:02:20 51°13.623 2°56.048 20.4655 0.067009 0.355514 -1.209513
2008-09-10 07:03:20 51°13.624 2°56.048 20.4722 0.067009 0.35555 -1.244337
2008-09-10 07:04:20 51°13.624 2°56.048 20.4777 0.067009 0.355592 -1.209513
2008-09-10 07:05:20 51°13.624 2°56.048 20.4842 0.067009 0.355635 -1.209513
2008-09-10 07:06:20 51°13.624 2°56.047 20.4938 0.066906 0.355114 -1.209513
2008-09-10 07:07:20 51°13.624 2°56.047 20.4897 0.066906 0.355156 -1.209513
2008-09-10 07:08:20 51°13.624 2°56.047 20.4877 0.066906 0.355204 -1.209513
2008-09-10 07:09:20 51°13.624 2°56.047 20.5068 0.066906 0.355247 -1.209513
2008-09-10 07:10:20 51°13.624 2°56.048 20.5207 0.066906 0.355283 -1.209513
2008-09-10 07:11:20 51°13.624 2°56.048 20.5362 0.066906 0.355331 -1.209513
2008-09-10 07:12:20 51°13.623 2°56.048 20.5489 0.066906 0.355373 -1.209513
2008-09-10 07:13:20 51°13.623 2°56.048 20.551 0.066906 0.355416 -1.209513
2008-09-10 07:14:20 51°13.623 2°56.048 20.5468 0.066906 0.355458 -1.209513
2008-09-10 07:15:20 51°13.623 2°56.048 20.5563 0.066906 0.355506 -1.209513
2008-09-10 07:16:20 51°13.623 2°56.048 20.5623 0.066906 0.355543 -1.209513
2008-09-10 07:17:20 51°13.623 2°56.048 20.5682 0.066906 0.355585 -1.209513
2008-09-10 07:18:20 51°13.623 2°56.048 20.5744 0.066906 0.355627 -1.209513
2008-09-10 07:19:20 51°13.623 2°56.048 20.5856 0.066906 0.35567 -1.209513
2008-09-10 07:20:20 51°13.624 2°56.047 20.6039 0.066803 0.355142 -1.209513
2008-09-10 07:21:20 51°13.625 2°56.045 20.6033 0.066803 0.355184 -1.209513
2008-09-10 07:22:20 51°13.624 2°56.044 20.6201 0.066803 0.355221 -1.209513
2008-09-10 07:23:20 51°13.623 2°56.043 20.6469 0.066803 0.355263 -1.209513
2008-09-10 07:24:20 51°13.622 2°56.041 20.6318 0.066803 0.355299 -1.209513
2008-09-10 07:25:20 51°13.597 2°56.075 20.6457 0.066803 0.355336 -1.209513
2008-09-10 07:26:20 51°13.55 2°56.154 20.7068 0.066803 0.355384 -1.209513
2008-09-10 07:27:20 51°13.549 2°56.245 20.5745 0.066803 0.355426 -1.209513
2008-09-10 07:28:21 51°13.548 2°56.244 20.669 0.066803 0.355439 -1.209513
2008-09-10 07:29:20 51°13.538 2°56.243 20.6749 0.066803 0.355469 -1.209513
2008-09-10 07:30:20 51°13.541 2°56.25 20.6473 0.066803 0.355505 -1.209513
2008-09-10 07:31:20 51°13.526 2°56.262 20.7308 0.066803 0.355596 -1.209513
2008-09-10 07:32:20 51°13.554 2°56.179 20.6361 0.066803 0.355596 -1.209513
2008-09-10 07:33:20 51°13.586 2°56.063 20.637 0.066803 0.355626 -1.209513
2008-09-10 07:34:20 51°13.627 2°55.945 20.6464 0.066803 0.355669 -1.209513
2008-09-10 07:35:20 51°13.68 2°55.816 20.6731 0.066803 0.355699 -1.209513
2008-09-10 07:36:20 51°13.771 2°55.664 20.5618 0.0667 0.355159 -1.209513
2008-09-10 07:37:20 51°13.899 2°55.575 20.6851 0.0667 0.355195 -1.209513
2008-09-10 07:38:20 51°14.031 2°55.484 20.6708 0.0667 0.355225 -1.209513
2008-09-10 07:39:20 51°14.159 2°55.383 20.7157 0.0667 0.355249 -1.209513
2008-09-10 07:40:20 51°14.27 2°55.243 20.707 0.0667 0.35528 -1.209513
2008-09-10 07:41:20 51°14.358 2°55.067 20.7221 0.0667 0.355304 -1.209513
2008-09-10 07:42:20 51°14.444 2°54.891 20.7215 0.0667 0.355328 -1.209513
2008-09-10 07:43:20 51°14.529 2°54.721 20.7394 0.0667 0.355365 -1.209513
2008-09-10 07:44:20 51°14.615 2°54.554 20.7002 0.0667 0.355389 -1.209513
2008-09-10 07:45:20 51°14.695 2°54.38 20.7244 0.0667 0.355419 -1.209513
2008-09-10 07:46:20 51°14.77 2°54.203 20.7326 0.0667 0.35545 -1.209513
2008-09-10 07:47:20 51°14.849 2°54.009 20.753 0.0667 0.355474 -1.209513
2008-09-10 07:48:20 51°14.941 2°53.78 20.7538 0.0667 0.35551 -1.209513
2008-09-10 07:49:20 51°14.976 2°53.691 20.7772 0.0667 0.355559 -1.209513
2008-09-10 07:50:20 51°14.988 2°53.705 20.7462 0.0667 0.355577 -1.209513
2008-09-10 07:51:20 51°14.999 2°53.653 20.7576 0.0667 0.355583 -1.209513
2008-09-10 07:52:20 51°15.031 2°53.463 20.7667 0.066597 0.355066 -1.209513
2008-09-10 07:53:20 51°15.068 2°53.281 20.7423 0.066597 0.355115 -1.209513
2008-09-10 07:54:20 51°15.107 2°53.254 20.7864 0.066597 0.355145 -1.209513
2008-09-10 07:55:20 51°15.144 2°53.251 20.7889 0.066597 0.355169 -1.209513
2008-09-10 07:56:20 51°15.175 2°53.25 20.7837 0.066597 0.355194 -1.209513
2008-09-10 07:57:20 51°15.207 2°53.174 20.817 0.066597 0.355091 -1.209513
2008-09-10 07:58:20 51°15.231 2°53.008 20.8031 0.066597 0.355309 -1.209513
2008-09-10 07:59:20 51°15.256 2°52.823 20.8065 0.066597 0.355267 -1.209513
2008-09-10 08:00:20 51°15.282 2°52.636 20.8125 0.066597 0.355309 -1.209513
2008-09-10 08:01:20 51°15.309 2°52.447 20.8335 0.066597 0.35534 -1.209513
2008-09-10 08:02:20 51°15.336 2°52.258 20.8289 0.066597 0.355376 -1.209513
2008-09-10 08:03:17 51°15.354 2°52.078 20.8133 0.066597 0.355394 -1.209513
2008-09-10 08:04:17 51°15.362 2°51.966 20.8508 0.066597 0.355431 -1.209513
2008-09-10 08:05:16 51°15.369 2°51.951 20.8537 0.066597 0.355455 -1.209513
2008-09-10 08:06:17 51°15.377 2°51.948 20.869 0.066597 0.355473 -1.209513
2008-09-10 08:07:16 51°15.384 2°51.95 20.8885 0.066494 0.354937 -1.209513
2008-09-10 08:08:17 51°15.393 2°51.956 20.8936 0.066494 0.354968 -1.209513
2008-09-10 08:09:17 51°15.393 2°51.931 20.9107 0.066494 0.354998 -1.209513
2008-09-10 08:10:16 51°15.363 2°51.771 20.8965 0.066494 0.355016 -1.209513
2008-09-10 08:11:17 51°15.323 2°51.494 20.8736 0.066494 0.355053 -1.209513
2008-09-10 08:12:16 51°15.317 2°51.203 20.8954 0.066494 0.355071 -1.209513
2008-09-10 08:13:17 51°15.321 2°50.901 20.9277 0.066494 0.355102 -1.209513
2008-09-10 08:14:16 51°15.321 2°50.607 20.9283 0.066494 0.355132 -1.209513
2008-09-10 08:15:17 51°15.314 2°50.305 20.9444 0.066494 0.35515 -1.209513
2008-09-10 08:16:16 51°15.31 2°50.013 20.9638 0.066494 0.355181 -1.209513
2008-09-10 08:17:16 51°15.313 2°49.715 20.9601 0.066494 0.355211 -1.209513
2008-09-10 08:18:17 51°15.315 2°49.411 20.96 0.066494 0.355242 -1.209513
2008-09-10 08:19:16 51°15.314 2°49.117 20.9848 0.066494 0.35526 -1.209513
2008-09-10 08:20:17 51°15.309 2°48.816 20.9857 0.066494 0.35529 -1.209513
2008-09-10 08:21:16 51°15.304 2°48.524 21.0031 0.066494 0.355315 -1.209513
2008-09-10 08:22:17 51°15.305 2°48.22 21.0043 0.066494 0.355339 -1.209513
2008-09-10 08:23:16 51°15.303 2°47.924 21.0141 0.066391 0.354796 -1.209513
2008-09-10 08:24:17 51°15.299 2°47.619 21.02 0.066391 0.354827 -1.209513
2008-09-10 08:25:16 51°15.295 2°47.325 21.0426 0.066391 0.354851 -1.209513
2008-09-10 08:26:17 51°15.288 2°47.023 21.0543 0.066391 0.354869 -1.209513
2008-09-10 08:27:16 51°15.284 2°46.731 21.0574 0.066391 0.3549 -1.209513
2008-09-10 08:28:17 51°15.281 2°46.428 21.0576 0.066391 0.354924 -1.209513
2008-09-10 08:29:16 51°15.275 2°46.135 21.0561 0.066391 0.354949 -1.209513
2008-09-10 08:30:17 51°15.263 2°45.835 21.0808 0.066391 0.354979 -1.209513
2008-09-10 08:31:16 51°15.255 2°45.545 21.0944 0.066391 0.354997 -1.209513
2008-09-10 08:32:16 51°15.257 2°45.249 21.0981 0.066391 0.355022 -1.209513
2008-09-10 08:33:16 51°15.26 2°44.952 21.0894 0.066391 0.355046 -1.209513
2008-09-10 08:34:17 51°15.256 2°44.651 21.0907 0.066391 0.355076 -1.209513
2008-09-10 08:35:16 51°15.257 2°44.36 21.1276 0.066391 0.355101 -1.209513
2008-09-10 08:36:17 51°15.253 2°44.059 21.1119 0.066391 0.355125 -1.209513
2008-09-10 08:37:17 51°15.255 2°43.761 21.1459 0.066391 0.355143 -1.209513
2008-09-10 08:38:17 51°15.25 2°43.462 21.1644 0.066391 0.355174 -1.209513
2008-09-10 08:39:16 51°15.241 2°43.17 21.1575 0.066391 0.355192 -1.209513
2008-09-10 08:40:17 51°15.228 2°42.869 21.1656 0.066391 0.355223 -1.209513
2008-09-10 08:41:16 51°15.222 2°42.577 21.1774 0.066391 0.355241 -1.209513
2008-09-10 08:42:17 51°15.208 2°42.276 21.1701 0.066391 0.355265 -1.209513
2008-09-10 08:43:17 51°15.2 2°41.978 21.2075 0.066391 0.35529 -1.209513
2008-09-10 08:44:17 51°15.193 2°41.678 21.1921 0.066288 0.354747 -1.209513
2008-09-10 08:45:16 51°15.182 2°41.384 21.2188 0.066288 0.354765 -1.209513
2008-09-10 08:46:16 51°15.17 2°41.086 21.2217 0.066288 0.354789 -1.209513
2008-09-10 08:47:17 51°15.164 2°40.781 21.213 0.066288 0.354814 -1.209513
2008-09-10 08:48:16 51°15.152 2°40.488 21.2384 0.066288 0.354832 -1.209513
2008-09-10 08:49:17 51°15.14 2°40.186 21.2255 0.066288 0.354856 -1.209513
2008-09-10 08:50:16 51°15.13 2°39.893 21.25929 0.066288 0.354875 -1.209513
2008-09-10 08:51:17 51°15.128 2°39.59 21.2475 0.066288 0.354899 -1.209513
2008-09-10 08:52:16 51°15.126 2°39.295 21.2688 0.066288 0.354929 -1.209513
2008-09-10 08:53:17 51°15.121 2°38.99 21.299 0.066288 0.354948 -1.209513
2008-09-10 08:54:17 51°15.11 2°38.69 21.2867 0.066288 0.354966 -1.209513
2008-09-10 08:55:17 51°15.1 2°38.391 21.2889 0.066288 0.35499 -1.209513
2008-09-10 08:56:17 51°15.089 2°38.09 21.3131 0.066288 0.355009 -1.209513
2008-09-10 08:57:17 51°15.102 2°37.795 21.3118 0.066288 0.355027 -1.209513
2008-09-10 08:58:17 51°15.142 2°37.503 21.3344 0.066288 0.355051 -1.209513
2008-09-10 08:59:17 51°15.183 2°37.212 21.3133 0.066288 0.355064 -1.209513
2008-09-10 09:00:17 51°15.225 2°36.919 21.3286 0.066288 0.355094 -1.209513
2008-09-10 09:01:17 51°15.263 2°36.627 21.3657 0.066288 0.355113 -1.209513
2008-09-10 09:02:17 51°15.304 2°36.333 21.3629 0.066288 0.355131 -1.209513
2008-09-10 09:03:17 51°15.36 2°36.042 21.3543 0.066288 0.355149 -1.209513
2008-09-10 09:04:17 51°15.416 2°35.752 21.3661 0.066288 0.355174 -1.209513
2008-09-10 09:05:17 51°15.47 2°35.462 21.3648 0.066288 0.355198 -1.209513
2008-09-10 09:06:17 51°15.522 2°35.169 21.3906 0.066288 0.35521 -1.209513
2008-09-10 09:07:17 51°15.571 2°34.877 21.4162 0.066288 0.355235 -1.209513
2008-09-10 09:08:17 51°15.614 2°34.583 21.4237 0.066288 0.355253 -1.209513
2008-09-10 09:09:17 51°15.654 2°34.285 21.4191 0.066185 0.354703 -1.209513
2008-09-10 09:10:17 51°15.694 2°33.986 21.4321 0.066185 0.354721 -1.209513
2008-09-10 09:11:17 51°15.737 2°33.687 21.4438 0.066185 0.35474 -1.209513
2008-09-10 09:12:17 51°15.768 2°33.387 21.4551 0.066185 0.354764 -1.209513
2008-09-10 09:13:17 51°15.799 2°33.089 21.4579 0.066185 0.354776 -1.209513
2008-09-10 09:14:17 51°15.829 2°32.792 21.4749 0.066185 0.354794 -1.209513
2008-09-10 09:15:17 51°15.855 2°32.496 21.4693 0.066185 0.354819 -1.209513
2008-09-10 09:16:17 51°15.868 2°32.197 21.5103 0.066185 0.354825 -1.209513
2008-09-10 09:17:17 51°15.817 2°31.922 21.4904 0.066185 0.354843 -1.209513
2008-09-10 09:18:17 51°15.732 2°31.668 21.4869 0.066185 0.354862 -1.209513
2008-09-10 09:19:17 51°15.625 2°31.439 21.5073 0.066185 0.354886 -1.209513
2008-09-10 09:20:17 51°15.491 2°31.249 21.5 0.066185 0.354898 -1.209513
2008-09-10 09:21:17 51°15.341 2°31.087 21.5146 0.066185 0.354923 -1.209513
2008-09-10 09:22:17 51°15.19 2°30.928 21.5322 0.066185 0.354953 -1.209513
2008-09-10 09:23:17 51°15.041 2°30.764 21.5303 0.066185 0.354978 -1.209513
2008-09-10 09:24:17 51°14.891 2°30.603 21.5584 0.066185 0.355002 -1.209513
2008-09-10 09:25:17 51°14.768 2°30.462 21.5729 0.066185 0.355027 -1.209513
2008-09-10 09:26:17 51°14.691 2°30.377 21.5959 0.066185 0.355039 -1.209513
2008-09-10 09:27:17 51°14.625 2°30.309 21.5765 0.066185 0.355063 -1.209513
2008-09-10 09:28:17 51°14.562 2°30.247 21.5947 0.066185 0.355088 -1.209513
2008-09-10 09:29:17 51°14.514 2°30.222 21.6013 0.066185 0.355106 -1.209513
2008-09-10 09:30:17 51°14.474 2°30.207 21.6141 0.066185 0.355119 -1.209513
2008-09-10 09:31:17 51°14.427 2°30.192 21.6161 0.066185 0.355143 -1.209513
2008-09-10 09:32:17 51°14.4 2°30.186 21.6522 0.066185 0.355155 -1.209513
2008-09-10 09:33:20 51°14.41 2°30.212 21.6328 0.066082 0.354617 -1.209513
2008-09-10 09:34:18 51°14.417 2°30.231 21.6397 0.066082 0.354617 -1.209513
2008-09-10 09:35:16 51°14.416 2°30.228 21.6552 0.066082 0.354635 -1.209513
2008-09-10 09:36:17 51°14.418 2°30.226 21.6743 0.066082 0.354647 -1.209513
2008-09-10 09:37:17 51°14.419 2°30.225 21.6785 0.066082 0.354659 -1.209513
2008-09-10 09:38:17 51°14.419 2°30.225 21.6877 0.066082 0.354665 -1.209513
2008-09-10 09:39:17 51°14.419 2°30.227 21.7036 0.066082 0.354684 -1.209513
2008-09-10 09:40:17 51°14.418 2°30.228 21.7021 0.066082 0.35469 -1.209513
2008-09-10 09:41:17 51°14.418 2°30.229 21.6896 0.066082 0.354702 -1.209513
2008-09-10 09:42:17 51°14.419 2°30.225 21.6971 0.066082 0.354714 -1.209513
2008-09-10 09:43:17 51°14.421 2°30.222 21.6963 0.066082 0.354727 -1.209513
2008-09-10 09:44:17 51°14.421 2°30.226 21.7239 0.066082 0.354733 -1.209513
2008-09-10 09:45:17 51°14.418 2°30.228 21.7353 0.066082 0.354745 -1.209513
2008-09-10 09:46:17 51°14.417 2°30.229 21.7357 0.066082 0.354757 -1.209513
2008-09-10 09:47:17 51°14.419 2°30.229 21.7429 0.066082 0.354769 -1.209513
2008-09-10 09:48:17 51°14.42 2°30.226 21.7702 0.066082 0.354782 -1.209513
2008-09-10 09:49:17 51°14.42 2°30.226 21.7624 0.066082 0.354788 -1.209513
2008-09-10 09:50:17 51°14.42 2°30.226 21.7662 0.066082 0.3548 -1.209513
2008-09-10 09:51:17 51°14.419 2°30.228 21.7853 0.066082 0.354806 -1.209513
2008-09-10 09:52:17 51°14.419 2°30.229 21.7911 0.066082 0.354818 -1.209513
2008-09-10 09:53:17 51°14.418 2°30.229 21.791 0.066082 0.354831 -1.209513
2008-09-10 09:54:17 51°14.419 2°30.228 21.8136 0.066082 0.354843 -1.209513
2008-09-10 09:55:17 51°14.42 2°30.226 21.8073 0.066082 0.354855 -1.209513
2008-09-10 09:56:16 51°14.42 2°30.225 21.8335 0.066082 0.354867 -1.209513
2008-09-10 09:57:17 51°14.421 2°30.227 21.8234 0.066082 0.354874 -1.209513
2008-09-10 09:58:17 51°14.419 2°30.228 21.8358 0.066082 0.354886 -1.209513
2008-09-10 09:59:16 51°14.417 2°30.231 21.8466 0.066082 0.354898 -1.209513
2008-09-10 10:00:17 51°14.416 2°30.23 21.8538 0.066082 0.35491 -1.209513
2008-09-10 10:01:17 51°14.419 2°30.228 21.8712 0.066082 0.354916 -1.209513
2008-09-10 10:02:17 51°14.421 2°30.224 21.8781 0.066082 0.354929 -1.209513
2008-09-10 10:03:16 51°14.421 2°30.222 21.88 0.066082 0.354941 -1.209513
2008-09-10 10:04:17 51°14.421 2°30.224 21.8798 0.066082 0.354941 -1.209513
2008-09-10 10:05:17 51°14.419 2°30.228 21.895 0.066082 0.354947 -1.209513
2008-09-10 10:06:17 51°14.417 2°30.231 21.9066 0.066082 0.354959 -1.209513
2008-09-10 10:07:16 51°14.416 2°30.231 21.9059 0.066082 0.354972 -1.209513
2008-09-10 10:08:17 51°14.419 2°30.228 21.9223 0.066082 0.354978 -1.209513
2008-09-10 10:09:17 51°14.421 2°30.223 21.9326 0.06598 0.354414 -1.174688
2008-09-10 10:10:17 51°14.422 2°30.222 21.9247 0.06598 0.35442 -1.209513
2008-09-10 10:11:17 51°14.421 2°30.225 21.9368 0.06598 0.354426 -1.209513
2008-09-10 10:12:16 51°14.419 2°30.227 21.9434 0.06598 0.354426 -1.209513
2008-09-10 10:13:17 51°14.418 2°30.229 21.946 0.06598 0.354438 -1.209513
2008-09-10 10:14:17 51°14.419 2°30.228 21.9619 0.06598 0.354438 -1.209513
2008-09-10 10:15:17 51°14.42 2°30.225 21.976 0.06598 0.354445 -1.209513
2008-09-10 10:16:17 51°14.421 2°30.223 21.9684 0.06598 0.354445 -1.209513
2008-09-10 10:17:16 51°14.421 2°30.223 21.9714 0.06598 0.354451 -1.209513
2008-09-10 10:18:17 51°14.421 2°30.225 21.9799 0.06598 0.354457 -1.209513
2008-09-10 10:19:17 51°14.42 2°30.226 21.9966 0.06598 0.354451 -1.209513
2008-09-10 10:20:17 51°14.419 2°30.227 22.0012 0.06598 0.354457 -1.209513
2008-09-10 10:21:17 51°14.42 2°30.226 22.0099 0.06598 0.354463 -1.209513
2008-09-10 10:22:16 51°14.42 2°30.225 22.004 0.06598 0.354469 -1.209513
2008-09-10 10:23:17 51°14.421 2°30.226 22.0194 0.06598 0.354469 -1.209513
2008-09-10 10:24:17 51°14.419 2°30.226 22.0262 0.06598 0.354469 -1.209513
2008-09-10 10:25:17 51°14.42 2°30.225 22.0396 0.06598 0.354475 -1.209513
2008-09-10 10:26:17 51°14.421 2°30.225 22.0346 0.06598 0.354481 -1.209513
2008-09-10 10:27:16 51°14.421 2°30.223 22.0402 0.06598 0.354481 -1.209513
2008-09-10 10:28:17 51°14.421 2°30.224 22.0636 0.06598 0.354487 -1.209513
2008-09-10 10:29:17 51°14.421 2°30.224 22.0608 0.06598 0.354493 -1.209513
2008-09-10 10:30:17 51°14.421 2°30.225 22.0712 0.06598 0.3545 -1.209513
2008-09-10 10:31:17 51°14.421 2°30.225 22.0737 0.06598 0.354506 -1.209513
2008-09-10 10:32:16 51°14.42 2°30.225 22.0676 0.06598 0.354512 -1.209513
2008-09-10 10:33:17 51°14.42 2°30.228 22.0796 0.06598 0.354518 -1.209513
2008-09-10 10:34:17 51°14.419 2°30.226 22.0873 0.06598 0.354518 -1.209513
2008-09-10 10:35:17 51°14.42 2°30.224 22.1007 0.06598 0.354524 -1.209513
2008-09-10 10:36:17 51°14.421 2°30.222 22.1039 0.06598 0.35453 -1.209513
2008-09-10 10:37:16 51°14.421 2°30.222 22.112 0.06598 0.35453 -1.209513
2008-09-10 10:38:17 51°14.421 2°30.225 22.1242 0.06598 0.35453 -1.209513
2008-09-10 10:39:17 51°14.419 2°30.227 22.1167 0.06598 0.354536 -1.209513
2008-09-10 10:40:17 51°14.419 2°30.227 22.1355 0.06598 0.354536 -1.209513
2008-09-10 10:41:17 51°14.42 2°30.227 22.1425 0.06598 0.354542 -1.209513
2008-09-10 10:42:16 51°14.42 2°30.225 22.1438 0.06598 0.354542 -1.209513
2008-09-10 10:43:17 51°14.42 2°30.225 22.1463 0.06598 0.354542 -1.209513
2008-09-10 10:44:17 51°14.42 2°30.226 22.1476 0.06598 0.35453 -1.209513
2008-09-10 10:45:17 51°14.42 2°30.225 22.1641 0.06598 0.35453 -1.209513
2008-09-10 10:46:17 51°14.42 2°30.225 22.1677 0.06598 0.354524 -1.209513
2008-09-10 10:47:17 51°14.42 2°30.225 22.1689 0.06598 0.354518 -1.209513
2008-09-10 10:48:16 51°14.42 2°30.225 22.1763 0.06598 0.354512 -1.209513
2008-09-10 10:49:17 51°14.42 2°30.225 22.1745 0.06598 0.354506 -1.209513
2008-09-10 10:50:17 51°14.42 2°30.225 22.1866 0.06598 0.354506 -1.209513
2008-09-10 10:51:17 51°14.42 2°30.225 22.1901 0.06598 0.3545 -1.209513
2008-09-10 10:52:17 51°14.421 2°30.224 22.1933 0.06598 0.354493 -1.209513
2008-09-10 10:53:17 51°14.42 2°30.224 22.204 0.06598 0.354487 -1.209513
2008-09-10 10:54:17 51°14.42 2°30.225 22.1992 0.06598 0.354481 -1.209513
2008-09-10 10:55:17 51°14.419 2°30.226 22.2209 0.06598 0.354475 -1.209513
2008-09-10 10:56:17 51°14.419 2°30.227 22.2183 0.06598 0.354469 -1.209513
2008-09-10 10:57:17 51°14.418 2°30.227 22.2341 0.06598 0.354469 -1.209513
2008-09-10 10:58:17 51°14.418 2°30.227 22.2376 0.06598 0.354463 -1.209513
2008-09-10 10:59:17 51°14.418 2°30.227 22.2422 0.06598 0.354463 -1.209513
2008-09-10 11:00:17 51°14.419 2°30.227 22.2404 0.06598 0.354457 -1.209513
2008-09-10 11:01:17 51°14.419 2°30.227 22.246 0.06598 0.354463 -1.209513
2008-09-10 11:02:17 51°14.419 2°30.228 22.2504 0.06598 0.354457 -1.209513
2008-09-10 11:03:17 51°14.419 2°30.228 22.2618 0.06598 0.354457 -1.209513
2008-09-10 11:04:17 51°14.419 2°30.228 22.261 0.06598 0.354463 -1.209513
2008-09-10 11:05:17 51°14.413 2°30.216 22.2707 0.06598 0.354463 -1.209513
2008-09-10 11:06:17 51°14.403 2°30.199 22.2739 0.06598 0.354463 -1.209513
2008-09-10 11:07:17 51°14.398 2°30.189 22.288 0.06598 0.354469 -1.209513
2008-09-10 11:08:17 51°14.396 2°30.184 22.2978 0.06598 0.354463 -1.209513
2008-09-10 11:09:17 51°14.398 2°30.154 22.291 0.06598 0.354481 -1.209513
2008-09-10 11:10:17 51°14.434 2°30.122 22.2957 0.06598 0.354487 -1.209513
2008-09-10 11:11:17 51°14.49 2°30.153 22.3174 0.06598 0.354481 -1.209513
2008-09-10 11:12:17 51°14.539 2°30.226 22.3271 0.06598 0.354481 -1.209513
2008-09-10 11:13:17 51°14.58 2°30.289 22.3323 0.06598 0.354481 -1.209513
2008-09-10 11:14:17 51°14.619 2°30.343 22.3325 0.06598 0.354481 -1.209513
2008-09-10 11:15:17 51°14.657 2°30.393 22.3512 0.06598 0.354481 -1.209513
2008-09-10 11:16:16 51°14.691 2°30.433 22.3518 0.06598 0.354481 -1.209513
2008-09-10 11:17:17 51°14.724 2°30.479 22.3477 0.06598 0.354481 -1.209513
2008-09-10 11:18:17 51°14.755 2°30.527 22.3658 0.06598 0.354481 -1.209513
2008-09-10 11:19:17 51°14.785 2°30.576 22.3664 0.06598 0.354475 -1.209513
2008-09-10 11:20:17 51°14.815 2°30.624 22.3679 0.06598 0.354469 -1.209513
2008-09-10 11:21:17 51°14.844 2°30.672 22.3789 0.06598 0.354463 -1.209513
2008-09-10 11:22:17 51°14.871 2°30.723 22.3857 0.06598 0.354463 -1.209513
2008-09-10 11:23:17 51°14.896 2°30.775 22.3891 0.06598 0.354457 -1.209513
2008-09-10 11:24:17 51°14.917 2°30.831 22.3796 0.06598 0.354445 -1.209513
2008-09-10 11:25:16 51°14.937 2°30.883 22.3858 0.06598 0.354438 -1.209513
2008-09-10 11:26:17 51°14.962 2°30.933 22.4089 0.06598 0.354432 -1.209513
2008-09-10 11:27:17 51°14.989 2°30.978 22.4122 0.06598 0.35442 -1.209513
2008-09-10 11:28:17 51°15.018 2°31.02 22.4201 0.06598 0.354414 -1.209513
2008-09-10 11:29:17 51°15.05 2°31.057 22.4276 0.066082 0.354972 -1.209513
2008-09-10 11:30:17 51°15.083 2°31.088 22.4422 0.066082 0.354965 -1.209513
2008-09-10 11:31:17 51°15.125 2°31.09 22.4478 0.066082 0.354965 -1.209513
2008-09-10 11:32:17 51°15.155 2°31.049 22.4555 0.066082 0.354947 -1.209513
2008-09-10 11:33:17 51°15.153 2°30.996 22.4538 0.066082 0.354947 -1.209513
2008-09-10 11:34:17 51°15.115 2°30.967 22.4449 0.066082 0.354935 -1.209513
2008-09-10 11:35:17 51°15.073 2°30.935 22.451 0.066082 0.354941 -1.209513
2008-09-10 11:36:16 51°15.041 2°30.901 22.4606 0.066082 0.354941 -1.209513
2008-09-10 11:37:17 51°15.008 2°30.878 22.4625 0.066082 0.354941 -1.209513
2008-09-10 11:38:17 51°14.977 2°30.861 22.4662 0.066082 0.354941 -1.209513
2008-09-10 11:39:17 51°14.946 2°30.844 22.484 0.066082 0.354941 -1.174688
2008-09-10 11:40:17 51°14.918 2°30.824 22.4847 0.066082 0.354947 -1.174688
2008-09-10 11:41:17 51°14.89 2°30.802 22.4826 0.066082 0.354953 -1.209513
2008-09-10 11:42:17 51°14.863 2°30.779 22.4857 0.066082 0.354959 -1.209513
2008-09-10 11:43:16 51°14.838 2°30.757 22.4984 0.066082 0.354965 -1.209513
2008-09-10 11:44:17 51°14.815 2°30.726 22.5007 0.066082 0.354972 -1.209513
2008-09-10 11:45:17 51°14.793 2°30.695 22.5067 0.066082 0.354978 -1.209513
2008-09-10 11:46:17 51°14.767 2°30.667 22.5117 0.066082 0.354984 -1.209513
2008-09-10 11:47:16 51°14.74 2°30.642 22.5298 0.066082 0.35499 -1.209513
2008-09-10 11:48:17 51°14.711 2°30.617 22.5343 0.066082 0.354996 -1.209513
2008-09-10 11:49:16 51°14.685 2°30.59 22.5323 0.066082 0.355008 -1.209513
2008-09-10 11:50:17 51°14.66 2°30.56 22.5338 0.066082 0.355008 -1.209513
2008-09-10 11:51:17 51°14.634 2°30.528 22.5431 0.066082 0.355014 -1.209513
2008-09-10 11:52:17 51°14.609 2°30.496 22.5521 0.066082 0.355021 -1.174688
2008-09-10 11:53:17 51°14.584 2°30.462 22.5474 0.066082 0.355033 -1.209513
2008-09-10 11:54:17 51°14.558 2°30.429 22.551 0.066082 0.355039 -1.209513
2008-09-10 11:55:17 51°14.531 2°30.396 22.565 0.06598 0.354475 -1.209513
2008-09-10 11:56:17 51°14.505 2°30.362 22.5659 0.066082 0.355057 -1.174688
2008-09-10 11:57:17 51°14.478 2°30.327 22.5808 0.06598 0.354493 -1.209513
2008-09-10 11:58:17 51°14.451 2°30.292 22.5814 0.066082 0.355076 -1.209513
2008-09-10 11:59:17 51°14.421 2°30.263 22.5837 0.066082 0.355088 -1.209513
2008-09-10 12:00:17 51°14.389 2°30.237 22.5794 0.066082 0.355094 -1.209513
2008-09-10 12:01:17 51°14.358 2°30.213 22.5999 0.06598 0.354536 -1.209513
2008-09-10 12:02:17 51°14.328 2°30.188 22.5902 0.06598 0.354549 -1.209513
2008-09-10 12:03:17 51°14.298 2°30.161 22.6023 0.06598 0.354555 -1.209513
2008-09-10 12:04:17 51°14.268 2°30.133 22.5963 0.066082 0.355137 -1.209513
2008-09-10 12:05:17 51°14.237 2°30.105 22.6118 0.06598 0.354579 -1.209513
2008-09-10 12:06:17 51°14.207 2°30.076 22.625 0.06598 0.354591 -1.209513
2008-09-10 12:07:17 51°14.176 2°30.047 22.6132 0.06598 0.354598 -1.209513
2008-09-10 12:08:17 51°14.145 2°30.017 22.6254 0.06598 0.35461 -1.209513
2008-09-10 12:09:17 51°14.116 2°29.984 22.61 0.06598 0.354622 -1.209513
2008-09-10 12:10:17 51°14.112 2°29.928 22.6245 0.06598 0.35464 -1.209513
2008-09-10 12:11:17 51°14.149 2°29.89 22.6211 0.06598 0.354659 -1.209513
2008-09-10 12:12:17 51°14.2 2°29.921 22.6469 0.06598 0.354653 -1.209513
2008-09-10 12:13:17 51°14.247 2°29.99 22.6528 0.06598 0.354665 -1.209513
2008-09-10 12:14:17 51°14.291 2°30.048 22.6457 0.06598 0.354671 -1.209513
2008-09-10 12:15:17 51°14.335 2°30.095 22.6685 0.06598 0.354683 -1.209513
2008-09-10 12:16:17 51°14.38 2°30.134 22.6538 0.06598 0.354677 -1.209513
2008-09-10 12:17:16 51°14.419 2°30.173 22.6605 0.06598 0.35469 -1.209513
2008-09-10 12:18:17 51°14.454 2°30.212 22.6608 0.06598 0.354696 -1.209513
2008-09-10 12:19:18 51°14.459 2°30.218 22.6594 0.06598 0.354702 -1.209513
2008-09-10 12:20:18 51°14.458 2°30.219 22.6848 0.06598 0.354708 -1.209513
2008-09-10 12:21:16 51°14.461 2°30.224 22.6801 0.06598 0.354708 -1.209513
2008-09-10 12:22:17 51°14.465 2°30.231 22.6931 0.06598 0.354714 -1.209513
2008-09-10 12:23:17 51°14.469 2°30.24 22.7002 0.06598 0.354714 -1.209513
2008-09-10 12:24:16 51°14.474 2°30.25 22.6959 0.06598 0.35472 -1.209513
2008-09-10 12:25:17 51°14.472 2°30.257 22.6998 0.06598 0.354726 -1.209513
2008-09-10 12:26:17 51°14.467 2°30.267 22.7017 0.06598 0.354726 -1.209513
2008-09-10 12:27:17 51°14.464 2°30.276 22.7031 0.06598 0.354732 -1.209513
2008-09-10 12:28:17 51°14.467 2°30.279 22.7085 0.06598 0.354739 -1.209513
2008-09-10 12:29:16 51°14.472 2°30.277 22.6352 0.06598 0.354745 -1.209513
2008-09-10 12:30:17 51°14.477 2°30.275 22.6838 0.06598 0.354751 -1.174688
2008-09-10 12:31:17 51°14.479 2°30.273 22.6856 0.06598 0.354757 -1.209513
2008-09-10 12:32:17 51°14.48 2°30.273 22.6781 0.06598 0.354757 -1.209513
2008-09-10 12:33:17 51°14.48 2°30.275 22.6742 0.06598 0.354757 -1.209513
2008-09-10 12:34:17 51°14.478 2°30.274 22.6734 0.06598 0.354763 -1.209513
2008-09-10 12:35:17 51°14.476 2°30.275 22.6806 0.06598 0.354763 -1.209513